Time;durP1;ratioP1;P1;durP2;ratioP2;P2;SDS_P1;SDS_P2;PMS_P1;PMS_P2;Temp;Humidity;BMP_temperature;BMP_pressure;BME280_temperature;BME280_humidity;BME280_pressure;Samples;Min_cycle;Max_cycle;Signal;HPM_P1;HPM_P2
2021/11/29 00:04:25;;;;;;;25.58;18.80;;;;;;;2.70;65.29;98399.13;10388025;28;20055;-66
2021/11/29 00:09:27;;;;;;;24.65;17.05;;;;;;;2.66;65.44;98397.63;10389163;28;20153;-66
2021/11/29 00:14:29;;;;;;;23.30;16.17;;;;;;;2.50;65.49;98414.81;10389197;28;20547;-66
2021/11/29 00:19:30;;;;;;;19.52;14.27;;;;;;;2.27;65.58;98418.56;10388531;28;20064;-65
2021/11/29 00:24:32;;;;;;;17.95;13.73;;;;;;;2.15;65.57;98425.16;10387485;28;20052;-65
2021/11/29 00:29:34;;;;;;;17.33;12.88;;;;;;;2.06;65.51;98433.34;10387733;28;20136;-65
2021/11/29 00:34:35;;;;;;;19.45;12.63;;;;;;;1.92;65.49;98440.09;10388774;28;20049;-66
2021/11/29 00:39:37;;;;;;;19.27;11.85;;;;;;;1.85;65.50;98456.75;10388332;28;20049;-65
2021/11/29 00:44:40;;;;;;;16.48;12.00;;;;;;;1.67;65.86;98460.19;10387310;28;20049;-65
2021/11/29 00:49:42;;;;;;;18.33;12.13;;;;;;;1.64;66.10;98466.34;10385905;28;20048;-68
2021/11/29 00:54:44;;;;;;;19.40;12.70;;;;;;;1.62;66.05;98480.22;10387439;28;20057;-65
2021/11/29 00:59:49;;;;;;;19.27;13.85;;;;;;;1.50;66.60;98486.78;10387467;28;20396;-65
2021/11/29 01:04:51;;;;;;;19.02;13.13;;;;;;;1.39;66.66;98481.28;10386203;28;20056;-65
2021/11/29 01:09:53;;;;;;;19.33;13.18;;;;;;;1.37;66.55;98488.22;10386227;28;20671;-65
2021/11/29 01:14:55;;;;;;;21.08;13.70;;;;;;;1.37;66.83;98495.97;10385447;28;20141;-65
2021/11/29 01:19:56;;;;;;;23.58;15.68;;;;;;;1.32;67.22;98508.19;10386926;28;20142;-65
2021/11/29 01:24:58;;;;;;;24.20;16.27;;;;;;;1.28;67.16;98517.81;10386382;28;20053;-65
2021/11/29 01:30:00;;;;;;;23.92;16.08;;;;;;;1.30;67.35;98520.31;10386736;28;20088;-65
2021/11/29 01:35:02;;;;;;;24.83;16.35;;;;;;;1.24;67.25;98525.72;10386007;28;20059;-65
2021/11/29 01:40:07;;;;;;;25.05;16.42;;;;;;;1.23;67.46;98540.38;10385810;28;20489;-66
2021/11/29 01:45:17;;;;;;;26.33;14.63;;;;;;;1.31;67.92;98537.44;10385318;28;20136;-68
2021/11/29 01:50:18;;;;;;;22.10;14.63;;;;;;;1.53;66.97;98529.56;10385605;28;20075;-66
2021/11/29 01:55:21;;;;;;;19.85;14.50;;;;;;;1.51;66.76;98537.38;10385359;28;20163;-67
2021/11/29 02:00:26;;;;;;;18.65;13.88;;;;;;;1.56;66.63;98547.47;10384215;28;20812;-67
2021/11/29 02:05:28;;;;;;;22.20;13.65;;;;;;;1.49;66.61;98548.66;10385279;28;20573;-67
2021/11/29 02:10:30;;;;;;;20.90;14.30;;;;;;;1.47;66.81;98558.19;10384737;28;20041;-67
2021/11/29 02:15:32;;;;;;;21.92;13.80;;;;;;;1.46;66.68;98562.53;10385006;28;20147;-67
2021/11/29 02:20:35;;;;;;;25.38;15.95;;;;;;;1.44;66.66;98569.50;10383728;28;20049;-67
2021/11/29 02:25:37;;;;;;;21.33;14.65;;;;;;;1.47;66.68;98583.94;10383823;28;20053;-67
2021/11/29 02:30:38;;;;;;;18.73;13.52;;;;;;;1.38;66.50;98581.78;10383082;28;20061;-67
2021/11/29 02:35:40;;;;;;;20.20;12.20;;;;;;;1.31;66.29;98576.91;10384517;28;20350;-67
2021/11/29 02:40:42;;;;;;;17.23;12.73;;;;;;;1.17;66.17;98576.69;10382492;28;20096;-67
2021/11/29 02:45:44;;;;;;;18.10;13.48;;;;;;;1.11;66.18;98589.81;10383953;28;20056;-67
2021/11/29 02:50:45;;;;;;;22.77;13.50;;;;;;;1.12;66.07;98585.50;10383363;28;20138;-67
2021/11/29 02:55:47;;;;;;;19.27;14.15;;;;;;;1.16;65.91;98585.28;10383771;28;20788;-67
2021/11/29 03:00:49;;;;;;;23.80;15.60;;;;;;;1.12;66.03;98599.19;10384403;28;20054;-67
2021/11/29 03:05:50;;;;;;;24.20;15.70;;;;;;;1.12;66.23;98585.50;10392064;28;20056;-66
2021/11/29 03:10:52;;;;;;;26.63;16.90;;;;;;;1.08;66.41;98582.22;10390469;28;20444;-67
2021/11/29 03:15:54;;;;;;;26.55;17.13;;;;;;;1.07;66.59;98590.00;10391215;28;20071;-67
2021/11/29 03:20:56;;;;;;;25.95;16.90;;;;;;;0.97;66.61;98601.59;10390737;28;20072;-67
2021/11/29 03:25:59;;;;;;;22.33;15.23;;;;;;;0.84;66.78;98608.16;10390913;28;20140;-67
2021/11/29 03:31:01;;;;;;;23.23;16.98;;;;;;;0.74;66.92;98619.72;10391106;28;20080;-67
2021/11/29 03:36:04;;;;;;;23.80;16.98;;;;;;;0.71;66.93;98618.09;10393513;28;20141;-67
2021/11/29 03:41:08;;;;;;;25.52;16.85;;;;;;;0.73;66.90;98625.78;10397910;28;20496;-67
2021/11/29 03:46:10;;;;;;;28.77;17.50;;;;;;;0.68;66.92;98632.84;10396285;28;20763;-66
2021/11/29 03:51:13;;;;;;;26.10;16.85;;;;;;;0.65;66.74;98638.13;10396909;28;20087;-67
2021/11/29 03:56:15;;;;;;;29.85;18.05;;;;;;;0.66;66.60;98638.06;10397471;28;20049;-67
2021/11/29 04:01:16;;;;;;;28.67;18.30;;;;;;;0.68;66.67;98643.97;10396991;28;20496;-67
2021/11/29 04:06:19;;;;;;;29.42;18.25;;;;;;;0.65;66.73;98644.09;10391421;28;20568;-67
2021/11/29 04:11:20;;;;;;;33.38;19.55;;;;;;;0.60;66.89;98645.19;10389938;28;20127;-67
2021/11/29 04:16:22;;;;;;;28.85;18.85;;;;;;;0.55;66.99;98637.63;10389769;28;20604;-67
2021/11/29 04:21:24;;;;;;;32.15;18.40;;;;;;;0.51;66.99;98643.81;10389711;28;20413;-67
2021/11/29 04:26:28;;;;;;;29.40;19.02;;;;;;;0.45;67.00;98651.75;10390861;28;20055;-67
2021/11/29 04:31:30;;;;;;;32.55;19.65;;;;;;;0.39;66.82;98660.56;10388840;28;20073;-67
2021/11/29 04:36:32;;;;;;;27.92;18.25;;;;;;;0.48;67.00;98664.50;10389171;28;20075;-67
2021/11/29 04:41:34;;;;;;;28.70;19.13;;;;;;;0.55;66.96;98681.38;10389330;28;20060;-67
2021/11/29 04:46:36;;;;;;;27.58;17.67;;;;;;;0.51;66.83;98672.09;10388738;28;20057;-67
2021/11/29 04:51:38;;;;;;;28.30;18.70;;;;;;;0.60;66.73;98688.91;10388336;28;20053;-67
2021/11/29 04:56:41;;;;;;;30.67;18.55;;;;;;;0.63;66.63;98691.38;10387947;28;20053;-67
2021/11/29 05:01:42;;;;;;;32.92;19.55;;;;;;;0.69;66.58;98686.00;10388086;28;20046;-67
2021/11/29 05:06:44;;;;;;;30.83;19.65;;;;;;;0.70;66.45;98693.63;10388116;28;20434;-67
2021/11/29 05:11:46;;;;;;;33.90;22.33;;;;;;;0.79;66.26;98700.97;10387450;28;20422;-67
2021/11/29 05:16:48;;;;;;;30.63;20.80;;;;;;;0.91;66.32;98705.63;10387423;28;20061;-67
2021/11/29 05:21:50;;;;;;;27.80;19.88;;;;;;;0.96;65.97;98708.88;10387077;28;20096;-67
2021/11/29 05:26:51;;;;;;;31.77;19.73;;;;;;;1.03;65.54;98706.88;10387740;28;20041;-66
2021/11/29 05:31:53;;;;;;;44.65;25.30;;;;;;;0.87;65.99;98713.56;10386913;28;20113;-67
2021/11/29 05:36:55;;;;;;;42.00;24.95;;;;;;;0.85;66.01;98723.88;10386764;28;20376;-67
2021/11/29 05:41:57;;;;;;;38.83;23.50;;;;;;;0.76;66.19;98728.56;10386483;28;20056;-67
2021/11/29 05:46:58;;;;;;;28.58;20.00;;;;;;;0.72;66.27;98733.00;10386567;28;20053;-67
2021/11/29 05:52:00;;;;;;;27.35;18.25;;;;;;;0.75;66.29;98743.16;10385374;28;20144;-67
2021/11/29 05:57:02;;;;;;;28.52;18.15;;;;;;;0.81;65.97;98753.22;10386131;28;20773;-67
2021/11/29 06:02:04;;;;;;;29.73;19.02;;;;;;;0.83;66.10;98754.00;10385135;28;20091;-66
2021/11/29 06:07:06;;;;;;;29.17;18.35;;;;;;;0.92;66.03;98766.53;10385732;28;20130;-67
2021/11/29 06:12:08;;;;;;;24.33;17.33;;;;;;;0.83;66.12;98774.59;10385431;28;20055;-67
2021/11/29 06:17:10;;;;;;;25.15;17.48;;;;;;;0.78;66.22;98779.09;10385371;28;20756;-67
2021/11/29 06:22:12;;;;;;;28.27;18.73;;;;;;;0.81;66.31;98794.41;10384620;28;20049;-67
2021/11/29 06:27:14;;;;;;;26.00;17.58;;;;;;;0.76;66.48;98788.59;10385635;28;20575;-67
2021/11/29 06:32:16;;;;;;;28.58;18.75;;;;;;;0.78;66.63;98785.97;10385124;28;20164;-66
2021/11/29 06:37:19;;;;;;;28.35;19.13;;;;;;;0.77;66.68;98805.72;10384717;28;20053;-66
2021/11/29 06:42:20;;;;;;;30.75;19.08;;;;;;;0.85;66.67;98797.72;10383848;28;20045;-66
2021/11/29 06:47:22;;;;;;;30.15;18.70;;;;;;;0.87;66.46;98796.72;10384139;28;20137;-67
2021/11/29 06:52:24;;;;;;;28.30;18.95;;;;;;;0.89;66.56;98818.09;10384609;28;20056;-66
2021/11/29 06:57:26;;;;;;;26.58;18.20;;;;;;;0.90;66.51;98814.66;10382630;28;20304;-67
2021/11/29 07:02:28;;;;;;;30.52;19.17;;;;;;;1.00;66.40;98823.69;10385207;28;20076;-67
2021/11/29 07:07:30;;;;;;;23.75;16.60;;;;;;;1.07;66.26;98838.00;10384284;28;20056;-67
2021/11/29 07:12:33;;;;;;;24.88;17.55;;;;;;;1.15;66.20;98843.69;10388972;28;20132;-67
2021/11/29 07:17:35;;;;;;;26.13;15.57;;;;;;;1.21;66.00;98847.75;10392527;28;20064;-67
2021/11/29 07:22:37;;;;;;;22.73;14.30;;;;;;;1.36;65.72;98857.44;10390945;28;20144;-66
2021/11/29 07:27:39;;;;;;;19.90;13.73;;;;;;;1.33;65.61;98858.44;10392197;28;20059;-67
2021/11/29 07:32:41;;;;;;;18.50;13.00;;;;;;;1.36;65.72;98868.59;10391076;28;20049;-66
2021/11/29 07:37:43;;;;;;;16.20;11.20;;;;;;;1.51;65.34;98874.88;10390952;28;20057;-65
2021/11/29 07:42:45;;;;;;;17.15;11.30;;;;;;;1.61;65.03;98880.50;10391708;28;20140;-65
2021/11/29 07:47:47;;;;;;;17.95;12.07;;;;;;;1.72;65.11;98883.50;10391109;28;20057;-66
2021/11/29 07:52:49;;;;;;;18.58;11.88;;;;;;;1.76;64.96;98900.50;10391185;28;20414;-65
2021/11/29 07:57:52;;;;;;;16.73;11.40;;;;;;;1.74;64.95;98889.41;10389783;28;20053;-65
2021/11/29 08:02:57;;;;;;;21.65;12.95;;;;;;;1.68;64.90;98908.56;10389194;28;20045;-65
2021/11/29 08:08:01;;;;;;;21.13;13.10;;;;;;;1.72;64.93;98911.84;10390318;28;20049;-65
2021/11/29 08:13:04;;;;;;;18.08;13.10;;;;;;;1.83;64.91;98912.22;10390727;28;20125;-65
2021/11/29 08:18:07;;;;;;;20.67;12.90;;;;;;;1.84;64.72;98913.91;10389664;28;20063;-65
2021/11/29 08:23:09;;;;;;;18.27;13.18;;;;;;;1.94;64.52;98922.97;10387065;28;20128;-65
2021/11/29 08:28:12;;;;;;;20.20;12.90;;;;;;;1.81;64.81;98924.34;10389779;28;20148;-65
2021/11/29 08:33:14;;;;;;;20.83;12.18;;;;;;;1.79;64.93;98929.56;10388924;28;20057;-66
2021/11/29 08:38:17;;;;;;;18.77;12.45;;;;;;;1.84;65.12;98930.22;10389218;28;20425;-65
2021/11/29 08:43:20;;;;;;;21.63;13.27;;;;;;;1.90;65.01;98939.44;10388897;28;20803;-66
2021/11/29 08:48:22;;;;;;;21.13;12.75;;;;;;;1.92;64.74;98940.22;10388492;28;20045;-65
2021/11/29 08:53:26;;;;;;;19.55;12.07;;;;;;;1.95;64.65;98940.13;10388315;28;20075;-65
2021/11/29 08:58:27;;;;;;;19.95;11.73;;;;;;;2.03;64.56;98948.38;10385066;28;20053;-65
2021/11/29 09:03:29;;;;;;;17.27;11.48;;;;;;;1.99;64.65;98944.25;10388103;28;20053;-66
2021/11/29 09:08:31;;;;;;;19.52;11.27;;;;;;;2.15;64.39;98945.28;10387811;28;20052;-66
2021/11/29 09:13:35;;;;;;;16.05;10.32;;;;;;;2.11;64.48;98956.63;10387110;28;20486;-66
2021/11/29 09:18:37;;;;;;;18.83;10.70;;;;;;;2.22;64.25;98954.44;10387153;28;20050;-66
2021/11/29 09:23:41;;;;;;;16.08;9.85;;;;;;;2.37;63.84;98966.72;10385979;28;20089;-66
2021/11/29 09:28:43;;;;;;;14.65;9.30;;;;;;;2.37;63.84;98960.72;10386665;28;20140;-65
2021/11/29 09:33:45;;;;;;;16.55;9.55;;;;;;;2.34;63.86;98969.41;10385641;28;20054;-66
2021/11/29 09:38:47;;;;;;;18.27;10.18;;;;;;;2.34;63.86;98969.41;10386272;28;20135;-66
2021/11/29 09:43:48;;;;;;;15.20;8.88;;;;;;;2.33;63.49;98972.91;10386338;28;20045;-66
2021/11/29 09:48:50;;;;;;;15.90;9.27;;;;;;;2.30;63.78;98972.19;10386103;28;20045;-66
2021/11/29 09:54:08;;;;;;;15.05;9.73;;;;;;;2.45;63.45;98974.97;10385801;28;20518;-65
2021/11/29 09:59:10;;;;;;;14.68;8.95;;;;;;;2.48;63.41;98987.72;10386881;28;20699;-65
2021/11/29 10:04:12;;;;;;;15.85;8.50;;;;;;;2.36;63.33;98985.66;10385131;28;20076;-66
2021/11/29 10:09:39;;;;;;;13.90;8.10;;;;;;;2.40;63.36;98986.41;10385219;28;20056;-65
2021/11/29 10:14:41;;;;;;;13.10;7.70;;;;;;;2.61;62.68;98991.47;10384468;28;20056;-65
2021/11/29 10:19:43;;;;;;;11.68;7.82;;;;;;;2.78;62.38;98986.44;10385190;28;20320;-65
2021/11/29 10:24:46;;;;;;;13.48;7.43;;;;;;;3.10;61.85;98989.34;10384061;28;20601;-66
2021/11/29 10:29:52;;;;;;;17.08;11.65;;;;;;;3.16;61.33;98981.31;10384454;28;20061;-70
2021/11/29 10:34:56;;;;;;;13.27;8.30;;;;;;;3.01;61.31;98977.66;10381106;28;20167;-72
2021/11/29 10:39:57;;;;;;;10.65;6.90;;;;;;;2.89;61.74;98975.63;10381745;28;20139;-71
2021/11/29 10:44:59;;;;;;;9.98;6.50;;;;;;;2.95;61.77;98981.38;10384216;28;20160;-71
2021/11/29 10:50:04;;;;;;;11.73;6.50;;;;;;;2.87;61.57;98983.44;10394799;28;20261;-72
2021/11/29 10:55:07;;;;;;;9.25;5.90;;;;;;;3.07;61.46;98980.81;10393056;28;20158;-71
2021/11/29 11:00:13;;;;;;;10.55;5.53;;;;;;;3.21;61.11;98972.47;10398062;28;20044;-71
2021/11/29 11:05:16;;;;;;;8.00;5.60;;;;;;;3.16;60.75;98964.06;10396545;28;20156;-71
2021/11/29 11:10:20;;;;;;;12.05;5.45;;;;;;;3.23;61.03;98975.81;10397321;28;20132;-71
2021/11/29 11:15:21;;;;;;;11.93;5.75;;;;;;;3.32;61.00;98974.53;10397039;28;20132;-70
2021/11/29 11:20:38;;;;;;;12.02;5.53;;;;;;;3.49;60.67;98969.44;10397847;28;20575;-71
2021/11/29 11:25:42;;;;;;;12.20;5.35;;;;;;;3.62;60.27;98973.16;10396951;28;20053;-71
2021/11/29 11:30:45;;;;;;;9.55;5.45;;;;;;;3.79;60.00;98968.84;10397391;28;20057;-71
2021/11/29 11:35:49;;;;;;;9.63;5.75;;;;;;;3.81;59.95;98961.88;10397203;28;20434;-71
2021/11/29 11:40:52;;;;;;;14.15;6.60;;;;;;;4.00;59.67;98964.44;10397360;28;20045;-71
2021/11/29 11:45:54;;;;;;;11.35;5.82;;;;;;;3.96;59.57;98964.66;10396627;28;20410;-71
2021/11/29 11:50:56;;;;;;;9.38;5.22;;;;;;;3.96;59.86;98973.25;10395101;28;20060;-71
2021/11/29 11:55:58;;;;;;;8.52;4.78;;;;;;;4.06;59.53;98979.66;10395064;28;20059;-71
2021/11/29 12:01:15;;;;;;;8.57;4.07;;;;;;;4.01;59.33;98989.38;10387349;28;20058;-71
2021/11/29 12:06:19;;;;;;;13.77;4.63;;;;;;;3.88;59.34;98996.06;10390271;28;20053;-71
2021/11/29 12:11:27;;;;;;;9.70;4.80;;;;;;;3.82;59.43;98999.72;10390539;28;20050;-72
2021/11/29 12:16:33;;;;;;;8.80;4.22;;;;;;;3.94;59.66;99006.13;10389306;28;20100;-71
2021/11/29 12:21:38;;;;;;;8.80;4.20;;;;;;;3.91;59.98;99000.22;10390207;28;20052;-70
2021/11/29 12:26:43;;;;;;;8.85;4.38;;;;;;;3.74;60.97;99013.94;10389217;28;20056;-71
2021/11/29 12:31:45;;;;;;;11.35;4.50;;;;;;;3.73;61.55;99027.78;10388293;28;20463;-71
2021/11/29 12:36:59;;;;;;;8.85;4.38;;;;;;;3.39;62.74;99025.06;10390057;28;20077;-71
2021/11/29 12:42:00;;;;;;;9.88;5.40;;;;;;;3.32;63.11;99039.16;10388949;28;20416;-71
2021/11/29 12:47:26;;;;;;;13.13;6.47;;;;;;;3.26;64.46;99050.59;10387176;28;20528;-71
2021/11/29 12:52:37;;;;;;;15.25;7.07;;;;;;;3.17;64.96;99050.19;10403333;28;20409;-71
2021/11/29 12:57:40;;;;;;;9.68;4.72;;;;;;;3.10;64.81;99048.75;10387732;28;20049;-71
2021/11/29 13:02:52;;;;;;;9.52;5.00;;;;;;;3.14;65.35;99047.72;10387632;28;20188;-71
2021/11/29 13:08:18;;;;;;;9.00;4.85;;;;;;;3.08;65.80;99059.16;10387700;28;20104;-71
2021/11/29 13:13:26;;;;;;;7.95;4.32;;;;;;;3.02;66.19;99060.28;10388203;28;20053;-72
2021/11/29 13:18:55;;;;;;;8.80;4.30;;;;;;;3.16;66.41;99061.41;10386840;28;20053;-71
2021/11/29 13:24:36;;;;;;;5.80;3.47;;;;;;;3.24;66.00;99067.06;10387629;28;20111;-71
2021/11/29 13:29:45;;;;;;;8.55;3.65;;;;;;;3.33;65.53;99075.28;10386276;28;20502;-71
2021/11/29 13:34:50;;;;;;;7.25;2.88;;;;;;;3.34;65.32;99081.25;10386097;28;20347;-71
2021/11/29 13:40:00;;;;;;;5.30;3.03;;;;;;;3.43;65.31;99091.22;10386622;28;20053;-71
2021/11/29 13:45:08;;;;;;;7.57;3.20;;;;;;;3.42;65.44;99094.69;10386035;28;20051;-70
2021/11/29 13:50:22;;;;;;;5.15;3.50;;;;;;;3.38;65.38;99098.31;10386520;28;20041;-71
2021/11/29 13:55:27;;;;;;;8.32;3.60;;;;;;;3.33;65.54;99111.47;10386162;28;20144;-71
2021/11/29 14:00:34;;;;;;;5.85;3.88;;;;;;;3.36;65.67;99123.38;10385112;28;20041;-71
2021/11/29 14:05:46;;;;;;;6.32;4.15;;;;;;;3.32;65.68;99114.94;10383657;28;20064;-71
2021/11/29 14:10:58;;;;;;;7.13;4.28;;;;;;;3.32;65.85;99127.00;10384207;28;20136;-71
2021/11/29 14:16:09;;;;;;;8.35;4.70;;;;;;;3.28;65.69;99134.06;10384608;28;20322;-71
2021/11/29 14:21:11;;;;;;;;;;;;;;;3.10;66.49;99139.16;10383879;28;20041;-71
2021/11/29 14:26:28;;;;;;;6.75;5.07;;;;;;;3.32;65.64;99142.50;10385120;28;20328;-71
2021/11/29 14:31:30;;;;;;;8.95;5.50;;;;;;;3.35;65.61;99147.56;10383777;28;20571;-71
2021/11/29 14:36:41;;;;;;;9.45;6.00;;;;;;;3.38;65.60;99160.34;10384981;28;20054;-71
2021/11/29 14:42:06;;;;;;;9.43;6.75;;;;;;;3.38;65.71;99168.09;10384156;28;20049;-72
2021/11/29 14:47:15;;;;;;;11.98;7.90;;;;;;;3.51;65.46;99177.88;10384660;28;20416;-72
2021/11/29 14:52:19;;;;;;;11.75;8.82;;;;;;;3.62;65.03;99185.16;10382846;28;20273;-72
2021/11/29 14:57:24;;;;;;;13.40;9.25;;;;;;;3.55;65.32;99186.31;10383913;28;20899;-71
2021/11/29 15:02:26;;;;;;;10.40;7.38;;;;;;;3.45;65.02;99192.78;10384359;28;20128;-71
2021/11/29 15:07:31;;;;;;;9.35;7.35;;;;;;;3.39;64.93;99193.91;10384423;28;20134;-71
2021/11/29 15:12:39;;;;;;;12.40;7.70;;;;;;;3.37;64.95;99206.03;10382337;28;20046;-72
2021/11/29 15:17:46;;;;;;;11.52;6.70;;;;;;;3.34;64.66;99207.91;10383396;28;20075;-71
2021/11/29 15:23:02;;;;;;;8.77;6.47;;;;;;;3.27;64.53;99219.41;10383969;28;20052;-71
2021/11/29 15:28:20;;;;;;;;;;;;;;;2.97;65.09;99232.66;10384390;28;20059;-71
2021/11/29 15:33:27;;;;;;;11.18;7.47;;;;;;;3.26;64.09;99240.97;10388399;28;19972;-71
2021/11/29 15:38:38;;;;;;;12.63;6.70;;;;;;;3.23;64.13;99254.88;10391487;28;20049;-71
2021/11/29 15:43:43;;;;;;;9.32;7.18;;;;;;;3.30;64.05;99247.69;10391303;28;20128;-71
2021/11/29 15:48:49;;;;;;;10.13;6.95;;;;;;;3.33;63.87;99260.50;10391333;28;20049;-71
2021/11/29 15:53:54;;;;;;;13.00;7.70;;;;;;;3.40;63.90;99264.50;10390468;28;20053;-71
2021/11/29 15:58:57;;;;;;;10.60;6.97;;;;;;;3.56;63.50;99275.88;10391665;28;20060;-71
2021/11/29 16:03:59;;;;;;;11.77;7.63;;;;;;;3.66;63.44;99284.97;10390009;28;20780;-71
2021/11/29 16:09:02;;;;;;;13.93;8.63;;;;;;;3.63;63.21;99296.25;10390015;28;20053;-71
2021/11/29 16:14:04;;;;;;;14.88;8.90;;;;;;;3.65;63.03;99296.19;10389797;28;20095;-71
2021/11/29 16:19:07;;;;;;;17.98;11.13;;;;;;;3.69;63.25;99306.34;10389376;28;20055;-71
2021/11/29 16:24:13;;;;;;;20.33;13.45;;;;;;;3.68;63.20;99320.16;10389370;28;20132;-71
2021/11/29 16:29:15;;;;;;;17.27;10.90;;;;;;;3.59;63.68;99324.88;10387949;28;20052;-71
2021/11/29 16:34:17;;;;;;;14.90;9.35;;;;;;;3.52;63.63;99337.22;10387766;28;20041;-66
2021/11/29 16:39:19;;;;;;;14.82;10.13;;;;;;;3.61;63.73;99338.59;10388293;28;20580;-67
2021/11/29 16:44:20;;;;;;;15.63;11.98;;;;;;;3.64;63.74;99347.06;10388130;28;20579;-66
2021/11/29 16:49:22;;;;;;;16.60;11.63;;;;;;;3.51;64.12;99347.63;10388662;28;20085;-67
2021/11/29 16:54:24;;;;;;;14.32;11.38;;;;;;;3.39;64.44;99355.88;10387897;28;20349;-67
2021/11/29 16:59:27;;;;;;;14.10;11.60;;;;;;;3.38;64.74;99356.75;10387472;28;20516;-67
2021/11/29 17:04:40;;;;;;;18.35;14.15;;;;;;;3.32;64.84;99372.50;10387915;28;20061;-67
2021/11/29 17:09:42;;;;;;;19.45;13.63;;;;;;;3.26;65.08;99373.59;10385596;28;20042;-67
2021/11/29 17:14:45;;;;;;;17.90;12.77;;;;;;;3.16;65.17;99384.34;10387260;28;20046;-68
2021/11/29 17:19:47;;;;;;;18.60;13.23;;;;;;;3.27;65.13;99384.78;10380211;28;20057;-68
2021/11/29 17:24:50;;;;;;;18.50;13.15;;;;;;;3.43;64.74;99386.72;10384185;28;20062;-67
2021/11/29 17:29:52;;;;;;;18.05;14.02;;;;;;;3.43;64.48;99397.06;10384261;28;20490;-67
2021/11/29 17:34:54;;;;;;;18.63;13.23;;;;;;;3.30;64.93;99402.75;10376762;28;20045;-67
2021/11/29 17:40:06;;;;;;;17.48;12.82;;;;;;;3.30;64.76;99397.56;10380749;28;20038;-68
2021/11/29 17:45:08;;;;;;;19.60;12.15;;;;;;;3.35;64.56;99400.84;10375284;28;20059;-68
2021/11/29 17:50:14;;;;;;;18.85;13.32;;;;;;;3.32;64.66;99403.53;10380864;28;20049;-67
2021/11/29 17:55:17;;;;;;;19.25;12.10;;;;;;;3.27;64.91;99408.91;10382470;28;20140;-67
2021/11/29 18:00:22;;;;;;;15.65;12.52;;;;;;;3.28;64.68;99422.63;10383706;28;20136;-68
2021/11/29 18:05:25;;;;;;;17.13;12.95;;;;;;;3.34;64.98;99422.41;10380255;28;20140;-68
2021/11/29 18:15:50;;;;;;;22.63;14.02;;;;;;;3.18;65.40;99432.50;10383113;28;20065;-67
2021/11/29 18:20:52;;;;;;;19.42;14.75;;;;;;;3.22;65.44;99444.38;10379851;28;20132;-67
2021/11/29 18:25:54;;;;;;;18.00;13.80;;;;;;;3.28;65.33;99443.31;10383896;28;20124;-67
2021/11/29 18:30:58;;;;;;;36.50;23.05;;;;;;;3.31;65.48;99453.53;10397321;28;20077;-67
2021/11/29 18:35:59;;;;;;;20.08;15.48;;;;;;;3.25;65.67;99461.53;10381731;28;20076;-67
2021/11/29 18:41:01;;;;;;;20.42;16.27;;;;;;;3.32;65.85;99463.81;10382168;28;20140;-68
2021/11/29 18:46:03;;;;;;;22.58;15.98;;;;;;;3.37;65.82;99464.50;10382792;28;20045;-68
2021/11/29 18:51:05;;;;;;;20.95;16.63;;;;;;;3.37;65.89;99463.66;10381446;28;20604;-67
2021/11/29 18:56:06;;;;;;;22.52;17.27;;;;;;;3.42;65.91;99466.88;10380008;28;20516;-67
2021/11/29 19:01:08;;;;;;;23.30;16.75;;;;;;;3.22;66.32;99482.31;10379904;28;20062;-67
2021/11/29 19:06:10;;;;;;;24.98;19.95;;;;;;;2.80;66.80;99500.22;10385712;28;20059;-67
2021/11/29 19:11:12;;;;;;;19.23;14.43;;;;;;;2.51;66.99;99505.53;10392318;28;20064;-67
2021/11/29 19:16:13;;;;;;;23.60;17.45;;;;;;;2.66;67.13;99505.81;10390354;28;20071;-68
2021/11/29 19:21:15;;;;;;;24.98;17.08;;;;;;;2.77;67.05;99516.63;10388687;28;20164;-68
2021/11/29 19:26:17;;;;;;;18.50;13.98;;;;;;;2.71;66.69;99508.25;10390993;28;20141;-67
2021/11/29 19:31:20;;;;;;;21.20;15.30;;;;;;;2.80;66.66;99502.78;10391777;28;20073;-67
2021/11/29 19:36:26;;;;;;;28.13;18.63;;;;;;;2.88;66.81;99517.13;10391680;28;20058;-68
2021/11/29 19:46:30;;;;;;;31.13;20.77;;;;;;;2.98;67.06;99518.47;10390584;28;20076;-68
2021/11/29 19:51:35;;;;;;;26.42;20.70;;;;;;;2.99;66.89;99522.72;10388986;28;20049;-68
2021/11/29 19:56:37;;;;;;;39.20;23.42;;;;;;;3.09;67.19;99512.09;10391822;28;20395;-67
2021/11/29 20:01:40;;;;;;;27.80;21.30;;;;;;;3.17;67.18;99520.41;10388168;28;20437;-68
2021/11/29 20:06:45;;;;;;;30.40;21.35;;;;;;;3.29;66.90;99522.53;10388583;28;20502;-68
2021/11/29 20:11:50;;;;;;;29.45;20.13;;;;;;;3.39;66.77;99527.31;10391110;28;20514;-67
2021/11/29 20:16:56;;;;;;;27.42;20.05;;;;;;;3.41;66.75;99528.09;10387527;28;20069;-68
2021/11/29 20:22:00;;;;;;;40.72;24.92;;;;;;;3.31;67.11;99525.91;10388889;28;20045;-67
2021/11/29 20:27:09;;;;;;;42.22;25.38;;;;;;;3.21;67.55;99532.31;10389957;28;20096;-67
2021/11/29 20:32:11;;;;;;;40.92;24.60;;;;;;;3.10;67.67;99526.69;10389354;28;20144;-68
2021/11/29 20:37:13;;;;;;;28.48;17.73;;;;;;;3.05;67.63;99529.41;10386986;28;20060;-68
2021/11/29 20:42:15;;;;;;;36.30;20.70;;;;;;;3.00;67.64;99532.19;10387895;28;20107;-68
2021/11/29 20:47:17;;;;;;;18.77;13.02;;;;;;;3.01;67.88;99539.03;10387848;28;20048;-67
2021/11/29 20:52:22;;;;;;;16.85;12.63;;;;;;;2.96;67.77;99537.50;10388738;28;20075;-67
2021/11/29 20:57:25;;;;;;;20.48;11.88;;;;;;;2.96;67.90;99540.09;10388115;28;20148;-67
2021/11/29 21:02:27;;;;;;;16.40;12.65;;;;;;;2.99;67.72;99535.66;10387197;28;20103;-67
2021/11/29 21:07:29;;;;;;;17.90;12.95;;;;;;;2.99;67.86;99538.22;10387366;28;20050;-68
2021/11/29 21:12:32;;;;;;;17.70;12.10;;;;;;;2.94;67.92;99547.91;10387623;28;20061;-67
2021/11/29 21:17:34;;;;;;;14.90;11.13;;;;;;;2.91;68.16;99542.81;10387010;28;20057;-68
2021/11/29 21:22:41;;;;;;;19.30;12.13;;;;;;;2.91;68.11;99554.88;10386225;28;20422;-68
2021/11/29 21:27:43;;;;;;;16.40;12.13;;;;;;;2.93;67.95;99556.53;10384986;28;20425;-68
2021/11/29 21:32:46;;;;;;;15.40;12.13;;;;;;;2.94;68.16;99559.97;10386140;28;20211;-68
2021/11/29 21:37:51;;;;;;;20.30;11.85;;;;;;;2.93;68.27;99564.28;10385123;28;20053;-67
2021/11/29 21:42:52;;;;;;;14.95;11.32;;;;;;;2.98;68.08;99564.13;10385342;28;20076;-67
2021/11/29 21:47:54;;;;;;;15.15;10.65;;;;;;;2.91;68.33;99558.31;10386501;28;20049;-67
2021/11/29 21:52:57;;;;;;;15.75;10.75;;;;;;;2.84;68.58;99556.00;10385678;28;20052;-67
2021/11/29 21:57:59;;;;;;;14.45;9.30;;;;;;;2.82;68.61;99548.31;10384184;28;20123;-68
2021/11/29 22:03:02;;;;;;;12.23;9.00;;;;;;;2.80;68.59;99538.94;10383865;28;20065;-68
2021/11/29 22:08:04;;;;;;;13.57;9.75;;;;;;;2.81;68.69;99546.63;10384786;28;20184;-68
2021/11/29 22:13:07;;;;;;;12.25;9.13;;;;;;;2.68;69.21;99544.53;10383931;28;20045;-69
2021/11/29 22:18:09;;;;;;;11.90;8.98;;;;;;;2.67;69.12;99535.94;10382924;28;20054;-68
2021/11/29 22:23:11;;;;;;;11.52;8.32;;;;;;;2.58;69.31;99533.66;10385476;28;20045;-68
2021/11/29 22:28:14;;;;;;;10.80;7.93;;;;;;;2.56;69.14;99532.03;10383230;28;20413;-68
2021/11/29 22:33:16;;;;;;;12.05;8.73;;;;;;;2.52;69.54;99538.19;10384368;28;20076;-68
2021/11/29 22:38:20;;;;;;;12.15;8.43;;;;;;;2.53;69.42;99539.88;10383074;28;20894;-68
2021/11/29 22:43:24;;;;;;;12.80;8.52;;;;;;;2.50;69.68;99542.56;10382991;28;20071;-68
2021/11/29 22:48:26;;;;;;;13.65;8.80;;;;;;;2.43;69.64;99552.25;10384303;28;20050;-67
2021/11/29 22:53:27;;;;;;;11.95;8.10;;;;;;;2.60;69.29;99557.66;10383855;28;20474;-66
2021/11/29 22:59:13;;;;;;;11.98;8.00;;;;;;;2.44;69.84;99560.84;10384065;28;20544;-68
2021/11/29 23:05:03;;;;;;;12.75;8.02;;;;;;;2.49;69.68;99557.19;10384087;28;20061;-68
2021/11/29 23:10:06;;;;;;;13.52;7.40;;;;;;;2.59;69.21;99555.16;10383143;28;20049;-68
2021/11/29 23:15:08;;;;;;;11.95;7.57;;;;;;;2.66;69.15;99564.38;10380492;28;20045;-67
2021/11/29 23:20:10;;;;;;;12.63;6.88;;;;;;;2.67;69.13;99555.72;10383390;28;20152;-68
2021/11/29 23:25:12;;;;;;;14.57;7.13;;;;;;;2.65;69.21;99553.22;10383546;28;20754;-67
2021/11/29 23:30:14;;;;;;;10.95;6.05;;;;;;;2.64;69.18;99561.00;10383265;28;20107;-67
2021/11/29 23:35:16;;;;;;;15.60;5.75;;;;;;;2.61;69.06;99553.34;10366416;28;20164;-67
2021/11/29 23:40:18;;;;;;;10.75;4.93;;;;;;;2.68;69.04;99568.56;10383406;28;20103;-68